createdAt,value
2019-04-16T00:00:28.403Z,3.82
2019-04-16T00:02:56.919Z,3.76
2019-04-16T00:05:28.461Z,3.73
2019-04-16T00:07:59.679Z,3.77
2019-04-16T00:10:39.713Z,3.76
2019-04-16T00:13:25.851Z,3.66
2019-04-16T00:15:56.359Z,3.64
2019-04-16T00:18:24.566Z,3.58
2019-04-16T00:21:12.023Z,3.53
2019-04-16T00:24:11.556Z,3.53
2019-04-16T00:26:39.690Z,3.47
2019-04-16T00:29:07.593Z,3.27
2019-04-16T00:31:37.041Z,3.35
2019-04-16T00:34:05.686Z,3.37
2019-04-16T00:36:33.706Z,3.40
2019-04-16T00:39:01.635Z,3.44
2019-04-16T00:41:31.329Z,3.35
2019-04-16T00:43:59.537Z,3.34
2019-04-16T00:46:27.683Z,3.24
2019-04-16T00:48:55.731Z,3.40
2019-04-16T00:51:23.953Z,3.25
2019-04-16T00:53:51.937Z,3.22
2019-04-16T00:56:20.055Z,3.27
2019-04-16T00:58:49.399Z,3.23
2019-04-16T01:01:18.250Z,3.25
2019-04-16T01:03:46.304Z,3.17
2019-04-16T01:06:14.469Z,3.11
2019-04-16T01:08:53.968Z,3.19
2019-04-16T01:11:14.347Z,3.09
2019-04-16T01:13:44.532Z,3.01
2019-04-16T01:16:12.578Z,3.07
2019-04-16T01:18:40.576Z,3.03
2019-04-16T01:21:13.730Z,3.04
2019-04-16T01:23:39.683Z,2.93
2019-04-16T01:26:07.838Z,2.96
2019-04-16T01:28:40.297Z,2.94
2019-04-16T01:31:27.216Z,2.94
2019-04-16T01:34:20.324Z,2.96
2019-04-16T01:37:08.163Z,2.87
2019-04-16T01:39:36.585Z,2.86
2019-04-16T01:42:06.331Z,2.66
2019-04-16T01:44:34.339Z,2.64
2019-04-16T01:47:04.175Z,2.58
2019-04-16T01:49:32.434Z,2.68
2019-04-16T01:52:00.632Z,2.62
2019-04-16T01:54:29.003Z,2.55
2019-04-16T01:57:00.056Z,2.49
2019-04-16T01:59:27.260Z,2.52
2019-04-16T02:01:55.176Z,2.47
2019-04-16T02:04:23.249Z,2.48
2019-04-16T02:06:51.429Z,2.37
2019-04-16T02:09:22.760Z,2.34
2019-04-16T02:11:49.862Z,2.37
2019-04-16T02:14:21.940Z,2.30
2019-04-16T02:16:47.769Z,2.30
2019-04-16T02:19:16.080Z,2.23
2019-04-16T02:21:44.620Z,2.19
2019-04-16T02:24:13.644Z,2.15
2019-04-16T02:26:41.480Z,2.16
2019-04-16T02:29:09.633Z,2.20
2019-04-16T02:31:37.829Z,2.13
2019-04-16T02:34:05.964Z,2.12
2019-04-16T02:36:34.297Z,2.18
2019-04-16T02:39:02.643Z,2.23
2019-04-16T02:41:32.586Z,2.16
2019-04-16T02:44:00.895Z,2.11
2019-04-16T02:46:32.360Z,2.10
2019-04-16T02:48:58.876Z,2.12
2019-04-16T02:51:45.279Z,2.17
2019-04-16T02:54:21.600Z,2.07
2019-04-16T02:57:15.143Z,2.01
2019-04-16T02:59:47.354Z,1.97
2019-04-16T03:02:38.169Z,2.04
2019-04-16T03:05:11.360Z,2.02
2019-04-16T03:07:39.554Z,1.90
2019-04-16T03:10:12.015Z,1.89
2019-04-16T03:12:37.020Z,1.85
2019-04-16T03:15:05.044Z,1.85
2019-04-16T03:17:35.914Z,1.76
2019-04-16T03:20:04.981Z,1.73
2019-04-16T03:22:33.502Z,1.63
2019-04-16T03:25:02.067Z,1.66
2019-04-16T03:27:29.689Z,1.67
2019-04-16T03:30:02.870Z,1.49
2019-04-16T03:32:33.648Z,1.58
2019-04-16T03:34:56.388Z,1.55
2019-04-16T03:37:24.160Z,1.50
2019-04-16T03:39:51.735Z,1.52
2019-04-16T03:42:19.454Z,1.36
2019-04-16T03:44:47.187Z,1.48
2019-04-16T03:47:15.692Z,1.47
2019-04-16T03:49:44.575Z,1.49
2019-04-16T03:52:12.301Z,1.42
2019-04-16T03:54:40.053Z,1.44
2019-04-16T03:57:07.800Z,1.42
2019-04-16T03:59:35.509Z,1.38
2019-04-16T04:02:03.196Z,1.35
2019-04-16T04:04:30.852Z,1.37
2019-04-16T04:06:58.555Z,1.37
2019-04-16T04:09:26.212Z,1.35
2019-04-16T04:11:53.928Z,1.34
2019-04-16T04:14:23.458Z,1.27
2019-04-16T04:16:51.598Z,1.29
2019-04-16T04:19:19.276Z,1.29
2019-04-16T04:21:47.004Z,1.25
2019-04-16T04:24:14.671Z,1.28
2019-04-16T04:26:42.479Z,1.26
2019-04-16T04:29:10.352Z,1.25
2019-04-16T04:31:39.520Z,1.27
2019-04-16T04:34:09.983Z,1.25
2019-04-16T04:36:37.654Z,1.35
2019-04-16T04:39:08.995Z,1.40
2019-04-16T04:41:35.839Z,1.38
2019-04-16T04:44:05.240Z,1.40
2019-04-16T04:46:33.220Z,1.38
2019-04-16T04:49:01.564Z,1.40
2019-04-16T04:51:29.801Z,1.49
2019-04-16T04:53:58.026Z,1.60
2019-04-16T04:56:27.959Z,1.66
2019-04-16T04:58:56.079Z,1.70
2019-04-16T05:01:23.866Z,1.75
2019-04-16T05:04:27.127Z,1.80
2019-04-16T05:06:58.216Z,1.84
2019-04-16T05:09:29.245Z,1.93
2019-04-16T05:11:56.450Z,1.99
2019-04-16T05:14:25.943Z,2.13
2019-04-16T05:16:54.042Z,2.21
2019-04-16T05:19:22.221Z,2.31
2019-04-16T05:21:50.869Z,2.37
2019-04-16T05:24:19.404Z,2.49
2019-04-16T05:26:47.413Z,2.43
2019-04-16T05:29:17.476Z,2.73
2019-04-16T05:31:45.394Z,2.92
2019-04-16T05:34:13.446Z,3.02
2019-04-16T05:36:46.245Z,3.17
2019-04-16T05:39:11.385Z,3.39
2019-04-16T05:41:39.069Z,3.64
2019-04-16T05:44:06.951Z,3.76
2019-04-16T05:46:34.691Z,4.02
2019-04-16T05:49:02.455Z,4.20
2019-04-16T05:51:31.436Z,4.44
2019-04-16T05:54:08.427Z,4.57
2019-04-16T05:56:39.974Z,4.65
2019-04-16T05:59:07.717Z,4.83
2019-04-16T06:01:42.448Z,4.95
2019-04-16T06:04:11.555Z,5.13
2019-04-16T06:06:39.264Z,5.42
2019-04-16T06:09:11.860Z,5.68
2019-04-16T06:11:38.214Z,5.79
2019-04-16T06:14:27.383Z,5.93
2019-04-16T06:17:25.907Z,6.12
2019-04-16T06:20:21.407Z,6.33
2019-04-16T06:23:21.404Z,6.41
2019-04-16T06:26:00.416Z,6.81
2019-04-16T06:28:46.018Z,6.98
2019-04-16T06:31:33.246Z,7.10
2019-04-16T06:34:35.573Z,7.38
2019-04-16T06:37:11.592Z,7.53
2019-04-16T06:40:01.049Z,7.94
2019-04-16T06:42:31.220Z,8.19
2019-04-16T06:45:01.624Z,8.41
2019-04-16T06:47:52.991Z,8.60
2019-04-16T06:50:42.622Z,8.78
2019-04-16T06:53:30.749Z,9.19
2019-04-16T06:56:19.931Z,9.65
2019-04-16T06:59:08.637Z,9.90
2019-04-16T07:01:53.345Z,10.05
2019-04-16T07:04:40.568Z,10.22
2019-04-16T07:07:38.546Z,10.47
2019-04-16T07:10:16.823Z,10.70
2019-04-16T07:12:44.471Z,11.03
2019-04-16T07:15:12.577Z,11.13
2019-04-16T07:17:40.685Z,11.35
2019-04-16T07:20:13.190Z,11.62
2019-04-16T07:22:37.987Z,11.64
2019-04-16T07:25:06.520Z,12.03
2019-04-16T07:27:52.729Z,12.68
2019-04-16T07:30:38.409Z,13.61
2019-04-16T07:33:22.601Z,15.99
2019-04-16T07:36:06.317Z,17.71
2019-04-16T07:38:42.247Z,18.61
2019-04-16T07:41:44.656Z,19.52
2019-04-16T07:44:16.794Z,20.61
2019-04-16T07:47:19.642Z,20.45
2019-04-16T07:50:01.686Z,20.62
2019-04-16T07:52:38.990Z,21.46
2019-04-16T07:55:26.739Z,22.94
2019-04-16T07:57:53.642Z,23.33
2019-04-16T08:00:21.458Z,23.64
2019-04-16T08:02:50.779Z,26.04
2019-04-16T08:05:18.760Z,25.97
2019-04-16T08:07:46.561Z,26.77
2019-04-16T08:10:16.742Z,26.50
2019-04-16T08:12:50.494Z,26.03
2019-04-16T08:15:18.199Z,26.57
2019-04-16T08:17:45.876Z,26.89
2019-04-16T08:20:13.495Z,25.57
2019-04-16T08:22:41.191Z,26.48
2019-04-16T08:25:08.929Z,26.90
2019-04-16T08:27:36.533Z,28.13
2019-04-16T08:30:07.147Z,28.30
2019-04-16T08:32:34.878Z,28.86
2019-04-16T08:35:02.461Z,27.98
2019-04-16T08:37:31.050Z,28.90
2019-04-16T08:39:58.725Z,28.87
2019-04-16T08:42:29.332Z,28.41
2019-04-16T08:44:55.804Z,27.69
2019-04-16T08:47:24.641Z,28.80
2019-04-16T08:49:54.111Z,29.57
2019-04-16T08:52:21.670Z,30.27
2019-04-16T08:54:50.387Z,30.36
2019-04-16T08:57:18.763Z,30.71
2019-04-16T08:59:46.333Z,30.11
2019-04-16T09:02:13.970Z,29.15
2019-04-16T09:04:41.601Z,29.71
2019-04-16T09:07:21.264Z,31.61
2019-04-16T09:09:51.377Z,31.56
2019-04-16T09:12:19.014Z,31.24
2019-04-16T09:14:51.567Z,31.58
2019-04-16T09:17:28.018Z,31.44
2019-04-16T09:20:01.764Z,32.51
2019-04-16T09:22:29.685Z,33.31
2019-04-16T09:25:13.846Z,32.99
2019-04-16T09:27:42.593Z,31.77
2019-04-16T09:30:32.924Z,31.72
2019-04-16T09:33:23.804Z,32.11
2019-04-16T09:36:09.628Z,32.24
2019-04-16T09:38:46.500Z,32.67
2019-04-16T09:41:33.886Z,30.18
2019-04-16T09:44:01.855Z,32.23
2019-04-16T09:46:49.763Z,31.36
2019-04-16T09:48:59.416Z,31.74
2019-04-16T09:51:27.728Z,31.47
2019-04-16T09:53:55.343Z,32.06
2019-04-16T09:56:29.033Z,33.08
2019-04-16T09:58:59.214Z,32.78
2019-04-16T10:01:31.520Z,33.09
2019-04-16T10:03:59.073Z,33.12
2019-04-16T10:06:26.788Z,31.70
2019-04-16T10:08:56.732Z,31.18
2019-04-16T10:11:23.889Z,30.04
2019-04-16T10:13:51.533Z,32.69
2019-04-16T10:16:21.279Z,33.53
2019-04-16T10:18:48.924Z,33.71
2019-04-16T10:21:19.682Z,32.95
2019-04-16T10:24:13.067Z,32.17
2019-04-16T10:26:40.439Z,32.46
2019-04-16T10:29:11.831Z,33.65
2019-04-16T10:31:39.479Z,33.10
2019-04-16T10:34:07.140Z,31.51
2019-04-16T10:36:38.012Z,33.36
2019-04-16T10:39:15.050Z,35.32
2019-04-16T10:41:50.701Z,33.91
2019-04-16T10:44:37.830Z,33.24
2019-04-16T10:47:31.033Z,34.44
2019-04-16T10:50:36.103Z,34.56
2019-04-16T10:53:20.577Z,34.62
2019-04-16T10:56:22.809Z,34.68
2019-04-16T10:59:12.923Z,34.12
2019-04-16T11:02:10.638Z,34.53
2019-04-16T11:05:19.291Z,34.35
2019-04-16T11:07:46.271Z,34.18
2019-04-16T11:10:14.062Z,32.94
2019-04-16T11:12:41.629Z,34.02
2019-04-16T11:15:11.604Z,35.10
2019-04-16T11:17:39.369Z,35.01
2019-04-16T11:20:07.351Z,33.42
2019-04-16T11:22:35.381Z,33.92
2019-04-16T11:25:03.408Z,34.22
2019-04-16T11:27:32.261Z,33.93
2019-04-16T11:30:00.418Z,34.12
2019-04-16T11:32:29.990Z,33.85
2019-04-16T11:34:58.344Z,33.95
2019-04-16T11:37:27.532Z,34.16
2019-04-16T11:39:55.693Z,33.90
2019-04-16T11:42:23.906Z,34.22
2019-04-16T11:44:51.618Z,34.23
2019-04-16T11:47:19.299Z,33.15
2019-04-16T11:49:46.983Z,30.61
2019-04-16T11:52:15.919Z,29.51
2019-04-16T11:54:46.801Z,31.46
2019-04-16T11:57:13.962Z,30.49
2019-04-16T11:59:41.756Z,29.16
2019-04-16T12:02:18.404Z,29.20
2019-04-16T12:04:59.356Z,30.99
2019-04-16T12:07:47.113Z,32.51
2019-04-16T12:10:33.620Z,32.05
2019-04-16T12:13:26.332Z,31.46
2019-04-16T12:16:13.550Z,32.00
2019-04-16T12:19:12.611Z,32.97
2019-04-16T12:22:05.919Z,32.73
2019-04-16T12:25:05.213Z,32.33
2019-04-16T12:28:12.484Z,32.96
2019-04-16T12:31:02.562Z,31.96
2019-04-16T12:33:49.795Z,31.50
2019-04-16T12:36:52.045Z,33.23
2019-04-16T12:39:37.460Z,33.24
2019-04-16T12:42:27.973Z,32.78
2019-04-16T12:45:13.721Z,33.73
2019-04-16T12:47:48.505Z,31.38
2019-04-16T12:50:35.788Z,31.03
2019-04-16T12:53:12.954Z,32.21
2019-04-16T12:56:06.029Z,31.48
2019-04-16T12:58:55.028Z,31.01
2019-04-16T13:01:54.190Z,30.29
2019-04-16T13:04:39.965Z,27.58
2019-04-16T13:07:30.140Z,26.19
2019-04-16T13:10:08.943Z,27.18
2019-04-16T13:12:58.310Z,28.49
2019-04-16T13:15:48.306Z,28.35
2019-04-16T13:18:35.865Z,28.91
2019-04-16T13:21:20.432Z,30.25
2019-04-16T13:24:01.040Z,29.58
2019-04-16T13:26:34.081Z,29.82
2019-04-16T13:29:05.324Z,30.42
2019-04-16T13:31:33.036Z,30.47
2019-04-16T13:34:00.731Z,30.53
2019-04-16T13:36:28.501Z,30.40
2019-04-16T13:39:04.938Z,29.65
2019-04-16T13:41:32.953Z,30.51
2019-04-16T13:44:07.939Z,30.41
2019-04-16T13:46:34.837Z,30.45
2019-04-16T13:49:32.276Z,29.67
2019-04-16T13:52:00.614Z,29.68
2019-04-16T13:54:39.561Z,29.30
2019-04-16T13:57:11.419Z,29.18
2019-04-16T14:00:03.028Z,29.16
2019-04-16T14:02:47.801Z,29.43
2019-04-16T14:05:15.528Z,29.13
2019-04-16T14:07:43.255Z,28.61
2019-04-16T14:10:11.612Z,27.75
2019-04-16T14:12:42.139Z,26.89
2019-04-16T14:15:09.536Z,25.93
2019-04-16T14:17:51.792Z,24.91
2019-04-16T14:20:08.583Z,24.09
2019-04-16T14:22:37.250Z,23.59
2019-04-16T14:25:05.234Z,23.07
2019-04-16T14:27:32.975Z,22.52
2019-04-16T14:30:00.826Z,22.03
2019-04-16T14:32:28.488Z,20.92
2019-04-16T14:35:00.819Z,20.92
2019-04-16T14:37:29.666Z,20.82
2019-04-16T14:40:05.888Z,20.50
2019-04-16T14:42:33.551Z,20.50
2019-04-16T14:45:11.536Z,20.66
2019-04-16T14:47:40.187Z,20.48
2019-04-16T14:50:07.718Z,20.43
2019-04-16T14:52:35.481Z,20.46
2019-04-16T14:55:12.798Z,20.40
2019-04-16T14:57:58.754Z,20.18
2019-04-16T15:00:44.890Z,19.86
2019-04-16T15:03:32.170Z,19.68
2019-04-16T15:06:12.114Z,19.58
2019-04-16T15:08:57.945Z,19.39
2019-04-16T15:11:51.050Z,19.19
2019-04-16T15:14:32.870Z,19.07
2019-04-16T15:17:12.187Z,19.20
2019-04-16T15:20:01.375Z,19.21
2019-04-16T15:23:05.120Z,19.48
2019-04-16T15:25:53.532Z,19.36
2019-04-16T15:28:29.406Z,19.26
2019-04-16T15:31:02.668Z,19.04
2019-04-16T15:33:55.752Z,18.92
2019-04-16T15:36:50.539Z,18.87
2019-04-16T15:39:35.379Z,18.76
2019-04-16T15:42:28.951Z,18.53
2019-04-16T15:45:03.425Z,18.42
2019-04-16T15:47:49.365Z,18.34
2019-04-16T15:50:25.797Z,18.28
2019-04-16T15:52:59.275Z,18.32
2019-04-16T15:55:46.500Z,18.19
2019-04-16T15:58:32.738Z,18.08
2019-04-16T16:01:19.958Z,18.06
2019-04-16T16:04:05.497Z,18.01
2019-04-16T16:06:33.378Z,17.95
2019-04-16T16:09:20.444Z,17.92
2019-04-16T16:12:10.613Z,17.94
2019-04-16T16:14:39.158Z,17.91
2019-04-16T16:17:07.110Z,17.86
2019-04-16T16:19:34.714Z,17.83
2019-04-16T16:22:02.478Z,17.76
2019-04-16T16:24:30.105Z,17.77
2019-04-16T16:26:57.701Z,17.58
2019-04-16T16:29:25.224Z,17.45
2019-04-16T16:31:52.831Z,17.35
2019-04-16T16:34:20.446Z,17.20
2019-04-16T16:36:48.152Z,17.00
2019-04-16T16:39:15.695Z,16.92
2019-04-16T16:41:46.706Z,16.75
2019-04-16T16:44:14.471Z,16.53
2019-04-16T16:46:57.198Z,16.42
2019-04-16T16:49:24.391Z,16.46
2019-04-16T16:52:29.581Z,16.39
2019-04-16T16:54:59.265Z,16.28
2019-04-16T16:57:35.878Z,16.25
2019-04-16T17:00:27.401Z,16.14
2019-04-16T17:03:20.381Z,16.06
2019-04-16T17:05:48.409Z,16.04
2019-04-16T17:08:16.115Z,15.87
2019-04-16T17:10:43.675Z,15.78
2019-04-16T17:13:14.640Z,15.68
2019-04-16T17:15:41.945Z,15.49
2019-04-16T17:18:09.659Z,15.46
2019-04-16T17:20:38.342Z,15.40
2019-04-16T17:23:07.252Z,15.25
2019-04-16T17:25:36.806Z,15.14
2019-04-16T17:28:04.865Z,15.06
2019-04-16T17:30:32.539Z,15.01
2019-04-16T17:33:00.073Z,15.00
2019-04-16T17:35:27.626Z,14.98
2019-04-16T17:37:55.396Z,15.02
2019-04-16T17:41:00.683Z,15.14
2019-04-16T17:43:37.003Z,15.07
2019-04-16T17:46:27.113Z,14.95
2019-04-16T17:49:14.268Z,14.75
2019-04-16T17:52:13.599Z,14.67
2019-04-16T17:55:00.727Z,14.86
2019-04-16T17:57:46.785Z,15.03
2019-04-16T18:00:34.651Z,15.07
2019-04-16T18:03:16.477Z,14.95
2019-04-16T18:05:50.995Z,14.97
2019-04-16T18:08:44.448Z,15.13
2019-04-16T18:11:15.628Z,15.18
2019-04-16T18:14:06.676Z,15.14
2019-04-16T18:16:40.895Z,15.18
2019-04-16T18:19:28.726Z,14.98
2019-04-16T18:22:21.694Z,14.98
2019-04-16T18:25:11.645Z,14.88
2019-04-16T18:27:44.181Z,14.57
2019-04-16T18:30:46.200Z,14.36
2019-04-16T18:33:20.859Z,14.29
2019-04-16T18:36:16.561Z,14.14
2019-04-16T18:39:05.107Z,13.82
2019-04-16T18:41:44.232Z,13.89
2019-04-16T18:44:31.288Z,13.54
2019-04-16T18:47:27.686Z,13.86
2019-04-16T18:49:57.728Z,13.49
2019-04-16T18:52:25.528Z,13.56
2019-04-16T18:54:53.168Z,13.54
2019-04-16T18:57:20.997Z,13.65
2019-04-16T18:59:48.656Z,13.70
2019-04-16T19:02:16.400Z,13.82
2019-04-16T19:04:44.045Z,13.72
2019-04-16T19:07:11.722Z,13.19
2019-04-16T19:09:39.300Z,12.93
2019-04-16T19:12:07.165Z,12.90
2019-04-16T19:14:36.702Z,13.02
2019-04-16T19:17:04.804Z,13.26
2019-04-16T19:19:32.381Z,13.48
2019-04-16T19:22:00.116Z,13.61
2019-04-16T19:24:27.732Z,13.16
2019-04-16T19:26:55.353Z,13.08
2019-04-16T19:29:23.251Z,13.38
2019-04-16T19:31:54.778Z,13.37
2019-04-16T19:34:20.423Z,13.37
2019-04-16T19:36:48.106Z,12.70
2019-04-16T19:39:15.775Z,12.00
2019-04-16T19:41:43.515Z,11.56
2019-04-16T19:44:11.199Z,11.28
2019-04-16T19:46:38.928Z,11.02
2019-04-16T19:49:06.685Z,10.73
2019-04-16T19:51:34.405Z,10.53
2019-04-16T19:54:02.077Z,10.40
2019-04-16T19:56:33.270Z,10.20
2019-04-16T19:58:59.588Z,10.01
2019-04-16T20:01:27.590Z,9.90
2019-04-16T20:03:55.614Z,9.72
2019-04-16T20:06:26.166Z,9.62
2019-04-16T20:08:53.732Z,9.59
2019-04-16T20:11:23.015Z,9.50
2019-04-16T20:13:50.598Z,9.34
2019-04-16T20:16:18.421Z,9.25
2019-04-16T20:18:51.151Z,9.25
2019-04-16T20:21:15.771Z,9.24
2019-04-16T20:23:43.366Z,9.18
2019-04-16T20:26:11.099Z,9.05
2019-04-16T20:28:38.721Z,8.94
2019-04-16T20:31:07.672Z,8.84
2019-04-16T20:33:35.303Z,8.79
2019-04-16T20:36:03.116Z,8.74
2019-04-16T20:38:31.015Z,8.67
2019-04-16T20:40:58.761Z,8.73
2019-04-16T20:43:26.455Z,8.66
2019-04-16T20:45:54.343Z,8.60
2019-04-16T20:48:21.989Z,8.54
2019-04-16T20:50:52.676Z,8.45
2019-04-16T20:53:19.276Z,8.32
2019-04-16T20:55:48.162Z,8.28
2019-04-16T20:58:15.811Z,8.28
2019-04-16T21:00:45.977Z,8.29
2019-04-16T21:03:21.936Z,8.32
2019-04-16T21:05:57.448Z,8.14
2019-04-16T21:08:12.722Z,8.18
2019-04-16T21:10:40.423Z,8.08
2019-04-16T21:13:08.072Z,7.99
2019-04-16T21:15:35.718Z,7.94
2019-04-16T21:18:03.788Z,7.89
2019-04-16T21:20:31.606Z,7.85
2019-04-16T21:23:01.875Z,7.78
2019-04-16T21:25:28.741Z,7.81
2019-04-16T21:28:07.549Z,7.77
2019-04-16T21:30:35.607Z,7.75
2019-04-16T21:33:21.156Z,7.68
2019-04-16T21:35:51.476Z,7.63
2019-04-16T21:38:25.670Z,7.55
2019-04-16T21:40:56.354Z,7.54
2019-04-16T21:43:22.865Z,7.53
2019-04-16T21:45:50.566Z,7.47
2019-04-16T21:48:18.073Z,7.40
2019-04-16T21:50:47.592Z,7.37
2019-04-16T21:53:15.343Z,7.31
2019-04-16T21:55:43.060Z,7.37
2019-04-16T21:58:14.541Z,7.34
2019-04-16T22:00:59.759Z,7.25
2019-04-16T22:03:29.946Z,7.17
2019-04-16T22:05:57.994Z,7.05
2019-04-16T22:08:29.390Z,6.98
2019-04-16T22:10:55.963Z,7.04
2019-04-16T22:13:23.689Z,6.94
2019-04-16T22:15:53.767Z,6.91
2019-04-16T22:18:22.333Z,6.91
2019-04-16T22:20:49.889Z,6.92
2019-04-16T22:23:19.338Z,6.89
2019-04-16T22:25:46.924Z,6.88
2019-04-16T22:28:14.704Z,6.80
2019-04-16T22:30:43.527Z,6.76
2019-04-16T22:33:11.280Z,6.65
2019-04-16T22:35:39.014Z,6.67
2019-04-16T22:38:06.769Z,6.65
2019-04-16T22:40:54.957Z,6.57
2019-04-16T22:43:57.256Z,6.69
2019-04-16T22:46:38.043Z,6.56
2019-04-16T22:49:06.119Z,6.43
2019-04-16T22:51:34.160Z,6.34
2019-04-16T22:54:02.083Z,6.27
2019-04-16T22:56:40.646Z,6.27
2019-04-16T22:59:08.805Z,6.19
2019-04-16T23:01:37.601Z,6.13
2019-04-16T23:04:05.291Z,6.11
2019-04-16T23:06:37.798Z,6.08
2019-04-16T23:09:02.837Z,5.95
2019-04-16T23:11:32.204Z,6.07
2019-04-16T23:14:02.495Z,6.13
2019-04-16T23:16:29.427Z,6.10
2019-04-16T23:18:57.258Z,6.07
2019-04-16T23:21:24.845Z,5.97
2019-04-16T23:23:52.528Z,5.90
2019-04-16T23:26:20.282Z,5.75
2019-04-16T23:28:48.051Z,5.80
2019-04-16T23:31:15.686Z,5.75
2019-04-16T23:33:43.576Z,5.72
2019-04-16T23:36:16.542Z,5.76
2019-04-16T23:38:42.527Z,5.76
2019-04-16T23:41:15.341Z,5.74
2019-04-16T23:44:00.228Z,5.73
2019-04-16T23:46:47.390Z,5.56
2019-04-16T23:49:43.692Z,5.68
2019-04-16T23:52:15.803Z,5.68
2019-04-16T23:54:52.696Z,5.59
2019-04-16T23:57:49.078Z,5.58
